Terminal Aerodrome Forecast
Issued by NWS Shreveport, LA

Home | Current Version | Previous Version | Text Only | Print | Product List | Glossary On
Versions: 1 2 3 4 5 6 7 8 9 10 11 12
000
FTUS44 KSHV 311729
TAFGGG
TAF
KGGG 311729Z 3118/0118 VRB06KT P6SM SCT035 BKN150
     FM312000 15007KT P6SM SCT050
     FM010100 15005KT P6SM SCT250
     FM011100 18003KT P6SM BKN250
     FM011600 20006KT P6SM SCT035 BKN250=

USA.gov is the U.S. government's official web portal to all federal, state and local government web resources and services.